sensor_id;sensor_type;location;lat;lon;timestamp;temperature;humidity
13598;DHT22;38563;54.258;12.574;2022-08-19T00:01:36;20.40;99.90
13598;DHT22;38563;54.258;12.574;2022-08-19T00:04:07;20.40;99.90
13598;DHT22;38563;54.258;12.574;2022-08-19T00:06:35;20.40;99.90
13598;DHT22;38563;54.258;12.574;2022-08-19T00:09:03;20.40;99.90
13598;DHT22;38563;54.258;12.574;2022-08-19T00:11:30;20.40;99.90
13598;DHT22;38563;54.258;12.574;2022-08-19T00:13:57;20.40;99.90
13598;DHT22;38563;54.258;12.574;2022-08-19T00:16:25;20.40;99.90
13598;DHT22;38563;54.258;12.574;2022-08-19T00:18:52;20.30;99.90
13598;DHT22;38563;54.258;12.574;2022-08-19T00:21:20;20.30;99.90
13598;DHT22;38563;54.258;12.574;2022-08-19T00:23:47;20.30;99.90
13598;DHT22;38563;54.258;12.574;2022-08-19T00:26:14;20.20;99.90
13598;DHT22;38563;54.258;12.574;2022-08-19T00:28:41;20.10;99.90
13598;DHT22;38563;54.258;12.574;2022-08-19T00:31:08;20.10;99.90
13598;DHT22;38563;54.258;12.574;2022-08-19T00:33:35;20.10;99.90
13598;DHT22;38563;54.258;12.574;2022-08-19T00:36:05;20.10;99.90
13598;DHT22;38563;54.258;12.574;2022-08-19T00:38:34;20.00;99.90
13598;DHT22;38563;54.258;12.574;2022-08-19T00:41:01;20.00;99.90
13598;DHT22;38563;54.258;12.574;2022-08-19T00:43:28;20.00;99.90
13598;DHT22;38563;54.258;12.574;2022-08-19T00:45:55;20.00;99.90
13598;DHT22;38563;54.258;12.574;2022-08-19T00:48:22;20.00;99.90
13598;DHT22;38563;54.258;12.574;2022-08-19T00:50:50;20.00;99.90
13598;DHT22;38563;54.258;12.574;2022-08-19T00:53:21;20.10;99.90
13598;DHT22;38563;54.258;12.574;2022-08-19T00:55:51;20.10;99.90
13598;DHT22;38563;54.258;12.574;2022-08-19T00:58:21;20.10;99.90
13598;DHT22;38563;54.258;12.574;2022-08-19T01:00:48;20.10;99.90
13598;DHT22;38563;54.258;12.574;2022-08-19T01:03:19;20.10;99.90
13598;DHT22;38563;54.258;12.574;2022-08-19T01:05:47;20.10;99.90
13598;DHT22;38563;54.258;12.574;2022-08-19T01:08:16;20.10;99.90
13598;DHT22;38563;54.258;12.574;2022-08-19T01:10:47;20.10;99.90
13598;DHT22;38563;54.258;12.574;2022-08-19T01:13:16;20.00;99.90
13598;DHT22;38563;54.258;12.574;2022-08-19T01:15:46;20.00;99.90
13598;DHT22;38563;54.258;12.574;2022-08-19T01:18:16;19.90;99.90
13598;DHT22;38563;54.258;12.574;2022-08-19T01:20:44;19.90;99.90
13598;DHT22;38563;54.258;12.574;2022-08-19T01:23:12;19.90;99.90
13598;DHT22;38563;54.258;12.574;2022-08-19T01:25:44;19.90;99.90
13598;DHT22;38563;54.258;12.574;2022-08-19T01:28:16;19.90;99.90
13598;DHT22;38563;54.258;12.574;2022-08-19T01:30:44;19.90;99.90
13598;DHT22;38563;54.258;12.574;2022-08-19T01:33:12;19.90;99.90
13598;DHT22;38563;54.258;12.574;2022-08-19T01:35:40;19.90;99.90
13598;DHT22;38563;54.258;12.574;2022-08-19T01:38:09;19.90;99.90
13598;DHT22;38563;54.258;12.574;2022-08-19T01:40:39;20.00;99.90
13598;DHT22;38563;54.258;12.574;2022-08-19T01:43:07;20.00;99.90
13598;DHT22;38563;54.258;12.574;2022-08-19T01:45:35;20.00;99.90
13598;DHT22;38563;54.258;12.574;2022-08-19T01:48:03;20.00;99.90
13598;DHT22;38563;54.258;12.574;2022-08-19T01:50:31;20.00;99.90
13598;DHT22;38563;54.258;12.574;2022-08-19T01:53:00;19.90;99.90
13598;DHT22;38563;54.258;12.574;2022-08-19T01:55:27;20.00;99.90
13598;DHT22;38563;54.258;12.574;2022-08-19T01:57:58;20.00;99.90
13598;DHT22;38563;54.258;12.574;2022-08-19T02:00:28;19.90;99.90
13598;DHT22;38563;54.258;12.574;2022-08-19T02:02:56;19.90;99.90
13598;DHT22;38563;54.258;12.574;2022-08-19T02:05:23;19.90;99.90
13598;DHT22;38563;54.258;12.574;2022-08-19T02:07:50;19.90;99.90
13598;DHT22;38563;54.258;12.574;2022-08-19T02:10:20;19.90;99.90
13598;DHT22;38563;54.258;12.574;2022-08-19T02:12:48;19.80;99.90
13598;DHT22;38563;54.258;12.574;2022-08-19T02:15:17;19.90;99.90
13598;DHT22;38563;54.258;12.574;2022-08-19T02:17:45;19.90;99.90
13598;DHT22;38563;54.258;12.574;2022-08-19T02:20:12;19.80;99.90
13598;DHT22;38563;54.258;12.574;2022-08-19T02:22:39;19.90;99.90
13598;DHT22;38563;54.258;12.574;2022-08-19T02:25:08;19.90;99.90
13598;DHT22;38563;54.258;12.574;2022-08-19T02:27:35;19.90;99.90
13598;DHT22;38563;54.258;12.574;2022-08-19T02:30:05;19.90;99.90
13598;DHT22;38563;54.258;12.574;2022-08-19T02:32:34;19.80;99.90
13598;DHT22;38563;54.258;12.574;2022-08-19T02:35:01;19.80;99.90
13598;DHT22;38563;54.258;12.574;2022-08-19T02:37:28;19.80;99.90
13598;DHT22;38563;54.258;12.574;2022-08-19T02:40:12;19.70;99.90
13598;DHT22;38563;54.258;12.574;2022-08-19T02:42:39;19.60;99.90
13598;DHT22;38563;54.258;12.574;2022-08-19T02:45:08;19.70;99.90
13598;DHT22;38563;54.258;12.574;2022-08-19T02:47:37;19.80;99.90
13598;DHT22;38563;54.258;12.574;2022-08-19T02:50:05;19.80;99.90
13598;DHT22;38563;54.258;12.574;2022-08-19T02:52:32;19.80;99.90
13598;DHT22;38563;54.258;12.574;2022-08-19T02:54:59;19.80;99.90
13598;DHT22;38563;54.258;12.574;2022-08-19T02:57:27;19.90;99.90
13598;DHT22;38563;54.258;12.574;2022-08-19T02:59:54;19.90;99.90
13598;DHT22;38563;54.258;12.574;2022-08-19T03:02:20;19.90;99.90
13598;DHT22;38563;54.258;12.574;2022-08-19T03:04:49;19.90;99.90
13598;DHT22;38563;54.258;12.574;2022-08-19T03:07:17;19.90;99.90
13598;DHT22;38563;54.258;12.574;2022-08-19T03:09:44;19.90;99.90
13598;DHT22;38563;54.258;12.574;2022-08-19T03:12:11;20.00;99.90
13598;DHT22;38563;54.258;12.574;2022-08-19T03:14:37;20.00;99.90
13598;DHT22;38563;54.258;12.574;2022-08-19T03:17:04;20.10;99.90
13598;DHT22;38563;54.258;12.574;2022-08-19T03:19:31;20.10;99.90
13598;DHT22;38563;54.258;12.574;2022-08-19T03:21:59;20.20;99.90
13598;DHT22;38563;54.258;12.574;2022-08-19T03:24:26;20.20;99.90
13598;DHT22;38563;54.258;12.574;2022-08-19T03:26:54;20.20;99.90
13598;DHT22;38563;54.258;12.574;2022-08-19T03:29:23;20.30;99.90
13598;DHT22;38563;54.258;12.574;2022-08-19T03:31:50;20.30;99.90
13598;DHT22;38563;54.258;12.574;2022-08-19T03:34:20;20.40;99.90
13598;DHT22;38563;54.258;12.574;2022-08-19T03:36:47;20.30;99.90
13598;DHT22;38563;54.258;12.574;2022-08-19T03:39:16;20.40;99.90
13598;DHT22;38563;54.258;12.574;2022-08-19T03:41:44;20.40;99.90
13598;DHT22;38563;54.258;12.574;2022-08-19T03:44:12;20.50;99.90
13598;DHT22;38563;54.258;12.574;2022-08-19T03:46:39;20.50;99.90
13598;DHT22;38563;54.258;12.574;2022-08-19T03:49:05;20.40;99.90
13598;DHT22;38563;54.258;12.574;2022-08-19T03:51:34;20.40;99.90
13598;DHT22;38563;54.258;12.574;2022-08-19T03:54:04;20.40;99.90
13598;DHT22;38563;54.258;12.574;2022-08-19T03:56:33;20.40;99.90
13598;DHT22;38563;54.258;12.574;2022-08-19T03:59:00;20.30;99.90
13598;DHT22;38563;54.258;12.574;2022-08-19T04:01:28;20.30;99.90
13598;DHT22;38563;54.258;12.574;2022-08-19T04:03:56;20.30;99.90
13598;DHT22;38563;54.258;12.574;2022-08-19T04:06:25;20.30;99.90
13598;DHT22;38563;54.258;12.574;2022-08-19T04:08:53;20.30;99.90
13598;DHT22;38563;54.258;12.574;2022-08-19T04:11:23;20.30;99.90
13598;DHT22;38563;54.258;12.574;2022-08-19T04:13:53;20.40;99.90
13598;DHT22;38563;54.258;12.574;2022-08-19T04:16:22;20.40;99.90
13598;DHT22;38563;54.258;12.574;2022-08-19T04:18:49;20.40;99.90
13598;DHT22;38563;54.258;12.574;2022-08-19T04:21:17;20.40;99.90
13598;DHT22;38563;54.258;12.574;2022-08-19T04:23:45;20.30;99.90
13598;DHT22;38563;54.258;12.574;2022-08-19T04:26:13;20.40;99.90
13598;DHT22;38563;54.258;12.574;2022-08-19T04:28:41;20.50;99.90
13598;DHT22;38563;54.258;12.574;2022-08-19T04:31:13;20.50;99.90
13598;DHT22;38563;54.258;12.574;2022-08-19T04:33:40;20.50;99.90
13598;DHT22;38563;54.258;12.574;2022-08-19T04:36:07;20.50;99.90
13598;DHT22;38563;54.258;12.574;2022-08-19T04:38:35;20.50;99.90
13598;DHT22;38563;54.258;12.574;2022-08-19T04:41:03;20.50;99.90
13598;DHT22;38563;54.258;12.574;2022-08-19T04:43:47;20.50;99.90
13598;DHT22;38563;54.258;12.574;2022-08-19T04:46:17;20.50;99.90
13598;DHT22;38563;54.258;12.574;2022-08-19T04:48:45;20.40;99.90
13598;DHT22;38563;54.258;12.574;2022-08-19T04:51:12;20.50;99.90
13598;DHT22;38563;54.258;12.574;2022-08-19T04:53:40;20.50;99.90
13598;DHT22;38563;54.258;12.574;2022-08-19T04:56:09;20.50;99.90
13598;DHT22;38563;54.258;12.574;2022-08-19T04:58:37;20.50;99.90
13598;DHT22;38563;54.258;12.574;2022-08-19T05:01:04;20.60;99.90
13598;DHT22;38563;54.258;12.574;2022-08-19T05:03:33;20.50;99.90
13598;DHT22;38563;54.258;12.574;2022-08-19T05:06:04;20.50;99.90
13598;DHT22;38563;54.258;12.574;2022-08-19T05:08:33;20.50;99.90
13598;DHT22;38563;54.258;12.574;2022-08-19T05:11:00;20.60;99.90
13598;DHT22;38563;54.258;12.574;2022-08-19T05:13:28;20.70;99.90
13598;DHT22;38563;54.258;12.574;2022-08-19T05:15:56;20.80;99.90
13598;DHT22;38563;54.258;12.574;2022-08-19T05:18:24;20.80;99.90
13598;DHT22;38563;54.258;12.574;2022-08-19T05:21:12;20.90;99.90
13598;DHT22;38563;54.258;12.574;2022-08-19T05:23:56;20.90;99.90
13598;DHT22;38563;54.258;12.574;2022-08-19T05:26:23;20.90;99.90
13598;DHT22;38563;54.258;12.574;2022-08-19T05:28:51;20.90;99.90
13598;DHT22;38563;54.258;12.574;2022-08-19T05:31:18;21.00;99.90
13598;DHT22;38563;54.258;12.574;2022-08-19T05:33:45;21.00;99.90
13598;DHT22;38563;54.258;12.574;2022-08-19T05:36:13;21.00;99.90
13598;DHT22;38563;54.258;12.574;2022-08-19T05:38:40;21.10;99.90
13598;DHT22;38563;54.258;12.574;2022-08-19T05:41:08;21.10;99.90
13598;DHT22;38563;54.258;12.574;2022-08-19T05:43:35;21.10;99.90
13598;DHT22;38563;54.258;12.574;2022-08-19T05:46:02;21.10;99.90
13598;DHT22;38563;54.258;12.574;2022-08-19T05:48:29;21.10;99.90
13598;DHT22;38563;54.258;12.574;2022-08-19T05:50:56;21.20;99.90
13598;DHT22;38563;54.258;12.574;2022-08-19T05:53:25;21.20;99.90
13598;DHT22;38563;54.258;12.574;2022-08-19T05:55:52;21.20;99.90
13598;DHT22;38563;54.258;12.574;2022-08-19T05:58:18;21.30;99.90
13598;DHT22;38563;54.258;12.574;2022-08-19T06:00:45;21.30;99.90
13598;DHT22;38563;54.258;12.574;2022-08-19T06:03:12;21.30;99.90
13598;DHT22;38563;54.258;12.574;2022-08-19T06:05:39;21.30;99.90
13598;DHT22;38563;54.258;12.574;2022-08-19T06:08:06;21.30;99.90
13598;DHT22;38563;54.258;12.574;2022-08-19T06:10:34;21.40;99.90
13598;DHT22;38563;54.258;12.574;2022-08-19T06:13:02;21.50;99.90
13598;DHT22;38563;54.258;12.574;2022-08-19T06:15:29;21.50;99.90
13598;DHT22;38563;54.258;12.574;2022-08-19T06:17:56;21.60;99.90
13598;DHT22;38563;54.258;12.574;2022-08-19T06:20:23;21.60;99.90
13598;DHT22;38563;54.258;12.574;2022-08-19T06:22:50;21.60;99.90
13598;DHT22;38563;54.258;12.574;2022-08-19T06:25:17;21.70;99.90
13598;DHT22;38563;54.258;12.574;2022-08-19T06:27:46;21.60;99.90
13598;DHT22;38563;54.258;12.574;2022-08-19T06:30:13;21.60;99.90
13598;DHT22;38563;54.258;12.574;2022-08-19T06:32:40;21.60;99.90
13598;DHT22;38563;54.258;12.574;2022-08-19T06:35:08;21.60;99.90
13598;DHT22;38563;54.258;12.574;2022-08-19T06:37:36;21.50;99.90
13598;DHT22;38563;54.258;12.574;2022-08-19T06:40:04;21.50;99.90
13598;DHT22;38563;54.258;12.574;2022-08-19T06:42:31;21.40;99.90
13598;DHT22;38563;54.258;12.574;2022-08-19T06:44:59;21.40;99.90
13598;DHT22;38563;54.258;12.574;2022-08-19T06:47:29;21.40;99.90
13598;DHT22;38563;54.258;12.574;2022-08-19T06:49:57;21.40;99.90
13598;DHT22;38563;54.258;12.574;2022-08-19T06:52:28;21.30;99.90
13598;DHT22;38563;54.258;12.574;2022-08-19T06:55:31;21.20;99.90
13598;DHT22;38563;54.258;12.574;2022-08-19T06:57:57;21.00;99.90
13598;DHT22;38563;54.258;12.574;2022-08-19T07:00:29;20.90;99.90
13598;DHT22;38563;54.258;12.574;2022-08-19T07:02:55;20.90;99.90
13598;DHT22;38563;54.258;12.574;2022-08-19T07:05:22;20.90;99.90
13598;DHT22;38563;54.258;12.574;2022-08-19T07:07:49;20.90;99.90
13598;DHT22;38563;54.258;12.574;2022-08-19T07:10:16;20.90;99.90
13598;DHT22;38563;54.258;12.574;2022-08-19T07:12:42;20.90;99.90
13598;DHT22;38563;54.258;12.574;2022-08-19T07:15:10;20.90;99.90
13598;DHT22;38563;54.258;12.574;2022-08-19T07:17:39;20.90;99.90
13598;DHT22;38563;54.258;12.574;2022-08-19T07:20:09;20.80;99.90
13598;DHT22;38563;54.258;12.574;2022-08-19T07:22:36;20.80;99.90
13598;DHT22;38563;54.258;12.574;2022-08-19T07:25:05;20.80;99.90
13598;DHT22;38563;54.258;12.574;2022-08-19T07:27:32;20.80;99.90
13598;DHT22;38563;54.258;12.574;2022-08-19T07:30:00;20.80;99.90
13598;DHT22;38563;54.258;12.574;2022-08-19T07:32:27;20.70;99.90
13598;DHT22;38563;54.258;12.574;2022-08-19T07:34:55;20.70;99.90
13598;DHT22;38563;54.258;12.574;2022-08-19T07:37:21;20.70;99.90
13598;DHT22;38563;54.258;12.574;2022-08-19T07:39:48;20.80;99.90
13598;DHT22;38563;54.258;12.574;2022-08-19T07:42:15;20.80;99.90
13598;DHT22;38563;54.258;12.574;2022-08-19T07:44:43;20.80;99.90
13598;DHT22;38563;54.258;12.574;2022-08-19T07:47:10;20.80;99.90
13598;DHT22;38563;54.258;12.574;2022-08-19T07:49:37;20.80;99.90
13598;DHT22;38563;54.258;12.574;2022-08-19T07:52:07;20.80;99.90
13598;DHT22;38563;54.258;12.574;2022-08-19T07:54:37;20.80;99.90
13598;DHT22;38563;54.258;12.574;2022-08-19T07:57:04;20.80;99.90
13598;DHT22;38563;54.258;12.574;2022-08-19T07:59:31;20.80;99.90
13598;DHT22;38563;54.258;12.574;2022-08-19T08:01:59;20.90;99.90
13598;DHT22;38563;54.258;12.574;2022-08-19T08:04:26;20.90;99.90
13598;DHT22;38563;54.258;12.574;2022-08-19T08:07:12;20.90;99.90
13598;DHT22;38563;54.258;12.574;2022-08-19T08:09:56;21.00;99.90
13598;DHT22;38563;54.258;12.574;2022-08-19T08:12:24;21.00;99.90
13598;DHT22;38563;54.258;12.574;2022-08-19T08:14:58;21.10;99.90
13598;DHT22;38563;54.258;12.574;2022-08-19T08:17:28;21.10;99.90
13598;DHT22;38563;54.258;12.574;2022-08-19T08:19:56;21.10;99.90
13598;DHT22;38563;54.258;12.574;2022-08-19T08:22:24;21.20;99.90
13598;DHT22;38563;54.258;12.574;2022-08-19T08:25:11;21.20;99.90
13598;DHT22;38563;54.258;12.574;2022-08-19T08:27:40;21.20;99.90
13598;DHT22;38563;54.258;12.574;2022-08-19T08:30:08;21.30;99.90
13598;DHT22;38563;54.258;12.574;2022-08-19T08:32:35;21.20;99.90
13598;DHT22;38563;54.258;12.574;2022-08-19T08:35:03;21.20;99.90
13598;DHT22;38563;54.258;12.574;2022-08-19T08:37:31;21.10;99.90
13598;DHT22;38563;54.258;12.574;2022-08-19T08:39:58;21.10;99.90
13598;DHT22;38563;54.258;12.574;2022-08-19T08:42:29;21.10;99.90
13598;DHT22;38563;54.258;12.574;2022-08-19T08:45:00;21.10;99.90
13598;DHT22;38563;54.258;12.574;2022-08-19T08:47:31;21.00;99.90
13598;DHT22;38563;54.258;12.574;2022-08-19T08:50:04;21.00;99.90
13598;DHT22;38563;54.258;12.574;2022-08-19T08:52:35;21.00;99.90
13598;DHT22;38563;54.258;12.574;2022-08-19T08:55:07;21.00;99.90
13598;DHT22;38563;54.258;12.574;2022-08-19T08:57:36;20.90;99.90
13598;DHT22;38563;54.258;12.574;2022-08-19T09:00:09;20.90;99.90
13598;DHT22;38563;54.258;12.574;2022-08-19T09:02:36;20.80;99.90
13598;DHT22;38563;54.258;12.574;2022-08-19T09:05:04;20.80;99.90
13598;DHT22;38563;54.258;12.574;2022-08-19T09:07:41;20.80;99.90
13598;DHT22;38563;54.258;12.574;2022-08-19T09:10:15;20.80;99.90
13598;DHT22;38563;54.258;12.574;2022-08-19T09:12:53;20.80;99.90
13598;DHT22;38563;54.258;12.574;2022-08-19T09:15:28;20.70;99.90
13598;DHT22;38563;54.258;12.574;2022-08-19T09:17:59;20.80;99.90
13598;DHT22;38563;54.258;12.574;2022-08-19T09:20:27;20.70;99.90
13598;DHT22;38563;54.258;12.574;2022-08-19T09:22:55;20.60;99.90
13598;DHT22;38563;54.258;12.574;2022-08-19T09:25:22;20.60;99.90
13598;DHT22;38563;54.258;12.574;2022-08-19T09:27:51;20.60;99.90
13598;DHT22;38563;54.258;12.574;2022-08-19T09:30:22;20.60;99.90
13598;DHT22;38563;54.258;12.574;2022-08-19T09:32:49;20.70;99.90
13598;DHT22;38563;54.258;12.574;2022-08-19T09:35:18;20.70;99.90
13598;DHT22;38563;54.258;12.574;2022-08-19T09:37:47;20.80;99.90
13598;DHT22;38563;54.258;12.574;2022-08-19T09:40:17;20.80;99.90
13598;DHT22;38563;54.258;12.574;2022-08-19T09:42:44;20.80;99.90
13598;DHT22;38563;54.258;12.574;2022-08-19T09:45:12;20.80;99.90
13598;DHT22;38563;54.258;12.574;2022-08-19T09:47:39;20.80;99.90
13598;DHT22;38563;54.258;12.574;2022-08-19T09:50:08;20.70;99.90
13598;DHT22;38563;54.258;12.574;2022-08-19T09:52:35;20.70;99.90
13598;DHT22;38563;54.258;12.574;2022-08-19T09:55:03;20.80;99.90
13598;DHT22;38563;54.258;12.574;2022-08-19T09:57:31;20.90;99.90
13598;DHT22;38563;54.258;12.574;2022-08-19T09:59:58;20.80;99.90
13598;DHT22;38563;54.258;12.574;2022-08-19T10:02:25;20.90;99.90
13598;DHT22;38563;54.258;12.574;2022-08-19T10:04:52;20.90;99.90
13598;DHT22;38563;54.258;12.574;2022-08-19T10:07:36;21.00;99.90
13598;DHT22;38563;54.258;12.574;2022-08-19T10:10:03;21.00;99.90
13598;DHT22;38563;54.258;12.574;2022-08-19T10:12:33;21.00;99.90
13598;DHT22;38563;54.258;12.574;2022-08-19T10:15:00;21.00;99.90
13598;DHT22;38563;54.258;12.574;2022-08-19T10:17:27;21.10;99.90
13598;DHT22;38563;54.258;12.574;2022-08-19T10:19:54;21.20;99.90
13598;DHT22;38563;54.258;12.574;2022-08-19T10:22:21;21.30;99.90
13598;DHT22;38563;54.258;12.574;2022-08-19T10:24:48;21.30;99.90
13598;DHT22;38563;54.258;12.574;2022-08-19T10:27:15;21.30;99.90
13598;DHT22;38563;54.258;12.574;2022-08-19T10:29:44;21.30;99.90
13598;DHT22;38563;54.258;12.574;2022-08-19T10:32:12;21.30;99.90
13598;DHT22;38563;54.258;12.574;2022-08-19T10:34:39;21.20;99.90
13598;DHT22;38563;54.258;12.574;2022-08-19T10:37:06;21.20;99.90
13598;DHT22;38563;54.258;12.574;2022-08-19T10:39:34;21.30;99.90
13598;DHT22;38563;54.258;12.574;2022-08-19T10:42:04;21.30;99.90
13598;DHT22;38563;54.258;12.574;2022-08-19T10:44:32;21.30;99.90
13598;DHT22;38563;54.258;12.574;2022-08-19T10:47:02;21.40;99.90
13598;DHT22;38563;54.258;12.574;2022-08-19T10:49:29;21.40;99.90
13598;DHT22;38563;54.258;12.574;2022-08-19T10:51:57;21.40;99.90
13598;DHT22;38563;54.258;12.574;2022-08-19T10:54:41;21.60;99.90
13598;DHT22;38563;54.258;12.574;2022-08-19T10:57:25;21.60;99.90
13598;DHT22;38563;54.258;12.574;2022-08-19T10:59:56;21.80;99.90
13598;DHT22;38563;54.258;12.574;2022-08-19T11:02:24;21.80;99.90
13598;DHT22;38563;54.258;12.574;2022-08-19T11:04:51;21.80;99.90
13598;DHT22;38563;54.258;12.574;2022-08-19T11:07:18;21.90;99.90
13598;DHT22;38563;54.258;12.574;2022-08-19T11:09:44;22.00;99.90
13598;DHT22;38563;54.258;12.574;2022-08-19T11:12:12;22.00;99.90
13598;DHT22;38563;54.258;12.574;2022-08-19T11:14:40;21.90;99.90
13598;DHT22;38563;54.258;12.574;2022-08-19T11:17:07;21.90;99.90
13598;DHT22;38563;54.258;12.574;2022-08-19T11:19:35;21.90;99.90
13598;DHT22;38563;54.258;12.574;2022-08-19T11:22:01;22.00;99.90
13598;DHT22;38563;54.258;12.574;2022-08-19T11:24:29;21.90;99.90
13598;DHT22;38563;54.258;12.574;2022-08-19T11:27:02;21.80;99.90
13598;DHT22;38563;54.258;12.574;2022-08-19T11:29:30;21.80;99.90
13598;DHT22;38563;54.258;12.574;2022-08-19T11:31:57;21.70;99.90
13598;DHT22;38563;54.258;12.574;2022-08-19T11:34:28;21.50;99.90
13598;DHT22;38563;54.258;12.574;2022-08-19T11:36:57;21.50;99.90
13598;DHT22;38563;54.258;12.574;2022-08-19T11:39:26;21.40;99.90
13598;DHT22;38563;54.258;12.574;2022-08-19T11:41:53;21.20;99.90
13598;DHT22;38563;54.258;12.574;2022-08-19T11:44:20;21.20;99.90
13598;DHT22;38563;54.258;12.574;2022-08-19T11:46:47;21.10;99.90
13598;DHT22;38563;54.258;12.574;2022-08-19T11:49:14;21.00;99.90
13598;DHT22;38563;54.258;12.574;2022-08-19T11:51:42;21.10;99.90
13598;DHT22;38563;54.258;12.574;2022-08-19T11:54:11;21.10;99.90
13598;DHT22;38563;54.258;12.574;2022-08-19T11:56:40;21.20;99.90
13598;DHT22;38563;54.258;12.574;2022-08-19T11:59:07;21.20;99.90
13598;DHT22;38563;54.258;12.574;2022-08-19T12:01:34;21.20;99.90
13598;DHT22;38563;54.258;12.574;2022-08-19T12:04:01;21.30;99.90
13598;DHT22;38563;54.258;12.574;2022-08-19T12:06:31;21.30;99.90
13598;DHT22;38563;54.258;12.574;2022-08-19T12:09:02;21.40;99.90
13598;DHT22;38563;54.258;12.574;2022-08-19T12:11:32;21.40;99.90
13598;DHT22;38563;54.258;12.574;2022-08-19T12:13:58;21.40;99.90
13598;DHT22;38563;54.258;12.574;2022-08-19T12:16:27;21.50;99.90
13598;DHT22;38563;54.258;12.574;2022-08-19T12:18:55;21.50;99.90
13598;DHT22;38563;54.258;12.574;2022-08-19T12:21:25;21.50;99.90
13598;DHT22;38563;54.258;12.574;2022-08-19T12:23:55;21.40;99.90
13598;DHT22;38563;54.258;12.574;2022-08-19T12:26:23;21.30;99.90
13598;DHT22;38563;54.258;12.574;2022-08-19T12:28:51;21.30;99.90
13598;DHT22;38563;54.258;12.574;2022-08-19T12:31:18;21.20;99.90
13598;DHT22;38563;54.258;12.574;2022-08-19T12:33:46;21.20;99.90
13598;DHT22;38563;54.258;12.574;2022-08-19T12:36:15;21.10;99.90
13598;DHT22;38563;54.258;12.574;2022-08-19T12:38:43;21.10;99.90
13598;DHT22;38563;54.258;12.574;2022-08-19T12:41:13;21.10;99.90
13598;DHT22;38563;54.258;12.574;2022-08-19T12:43:39;21.10;99.90
13598;DHT22;38563;54.258;12.574;2022-08-19T12:46:10;21.20;99.90
13598;DHT22;38563;54.258;12.574;2022-08-19T12:48:37;21.30;99.90
13598;DHT22;38563;54.258;12.574;2022-08-19T12:51:09;21.40;99.90
13598;DHT22;38563;54.258;12.574;2022-08-19T12:53:37;21.40;99.90
13598;DHT22;38563;54.258;12.574;2022-08-19T12:56:05;21.30;99.90
13598;DHT22;38563;54.258;12.574;2022-08-19T12:58:32;21.30;99.90
13598;DHT22;38563;54.258;12.574;2022-08-19T13:01:00;21.30;99.90
13598;DHT22;38563;54.258;12.574;2022-08-19T13:03:33;21.20;99.90
13598;DHT22;38563;54.258;12.574;2022-08-19T13:06:00;21.20;99.90
13598;DHT22;38563;54.258;12.574;2022-08-19T13:08:27;21.30;99.90
13598;DHT22;38563;54.258;12.574;2022-08-19T13:10:54;21.30;99.90
13598;DHT22;38563;54.258;12.574;2022-08-19T13:13:21;21.30;99.90
13598;DHT22;38563;54.258;12.574;2022-08-19T13:15:48;21.30;99.90
13598;DHT22;38563;54.258;12.574;2022-08-19T13:18:14;21.40;99.90
13598;DHT22;38563;54.258;12.574;2022-08-19T13:20:42;21.40;99.90
13598;DHT22;38563;54.258;12.574;2022-08-19T13:23:09;21.40;99.90
13598;DHT22;38563;54.258;12.574;2022-08-19T13:25:36;21.40;99.90
13598;DHT22;38563;54.258;12.574;2022-08-19T13:28:03;21.40;99.90
13598;DHT22;38563;54.258;12.574;2022-08-19T13:30:32;21.40;99.90
13598;DHT22;38563;54.258;12.574;2022-08-19T13:33:16;21.40;99.90
13598;DHT22;38563;54.258;12.574;2022-08-19T13:35:47;21.50;99.90
13598;DHT22;38563;54.258;12.574;2022-08-19T13:38:17;21.40;99.90
13598;DHT22;38563;54.258;12.574;2022-08-19T13:40:44;21.40;99.90
13598;DHT22;38563;54.258;12.574;2022-08-19T13:43:11;21.40;99.90
13598;DHT22;38563;54.258;12.574;2022-08-19T13:45:39;21.40;99.90
13598;DHT22;38563;54.258;12.574;2022-08-19T13:48:07;21.40;99.90
13598;DHT22;38563;54.258;12.574;2022-08-19T13:50:39;21.40;99.90
13598;DHT22;38563;54.258;12.574;2022-08-19T13:53:11;21.40;99.90
13598;DHT22;38563;54.258;12.574;2022-08-19T13:55:38;21.40;99.90
13598;DHT22;38563;54.258;12.574;2022-08-19T13:58:06;21.40;99.90
13598;DHT22;38563;54.258;12.574;2022-08-19T14:00:36;21.50;99.90
13598;DHT22;38563;54.258;12.574;2022-08-19T14:03:04;21.50;99.90
13598;DHT22;38563;54.258;12.574;2022-08-19T14:05:32;21.60;99.90
13598;DHT22;38563;54.258;12.574;2022-08-19T14:07:59;21.60;99.90
13598;DHT22;38563;54.258;12.574;2022-08-19T14:10:28;21.60;99.90
13598;DHT22;38563;54.258;12.574;2022-08-19T14:12:59;21.60;99.90
13598;DHT22;38563;54.258;12.574;2022-08-19T14:15:26;21.50;99.90
13598;DHT22;38563;54.258;12.574;2022-08-19T14:17:53;21.50;99.90
13598;DHT22;38563;54.258;12.574;2022-08-19T14:20:21;21.50;99.90
13598;DHT22;38563;54.258;12.574;2022-08-19T14:22:48;21.60;99.90
13598;DHT22;38563;54.258;12.574;2022-08-19T14:25:17;21.60;99.90
13598;DHT22;38563;54.258;12.574;2022-08-19T14:27:47;21.60;99.90
13598;DHT22;38563;54.258;12.574;2022-08-19T14:30:17;21.60;99.90
13598;DHT22;38563;54.258;12.574;2022-08-19T14:32:44;21.70;99.90
13598;DHT22;38563;54.258;12.574;2022-08-19T14:35:13;21.70;99.90
13598;DHT22;38563;54.258;12.574;2022-08-19T14:37:40;21.70;99.90
13598;DHT22;38563;54.258;12.574;2022-08-19T14:40:08;21.80;99.90
13598;DHT22;38563;54.258;12.574;2022-08-19T14:42:36;21.70;99.90
13598;DHT22;38563;54.258;12.574;2022-08-19T14:45:05;21.80;99.90
13598;DHT22;38563;54.258;12.574;2022-08-19T14:47:32;21.70;99.90
13598;DHT22;38563;54.258;12.574;2022-08-19T14:49:59;21.50;99.90
13598;DHT22;38563;54.258;12.574;2022-08-19T14:52:26;21.50;99.90
13598;DHT22;38563;54.258;12.574;2022-08-19T14:54:53;21.40;99.90
13598;DHT22;38563;54.258;12.574;2022-08-19T14:57:20;21.40;99.90
13598;DHT22;38563;54.258;12.574;2022-08-19T14:59:46;21.30;99.90
13598;DHT22;38563;54.258;12.574;2022-08-19T15:02:14;21.30;99.90
13598;DHT22;38563;54.258;12.574;2022-08-19T15:04:41;21.30;99.90
13598;DHT22;38563;54.258;12.574;2022-08-19T15:07:09;21.30;99.90
13598;DHT22;38563;54.258;12.574;2022-08-19T15:09:36;21.30;99.90
13598;DHT22;38563;54.258;12.574;2022-08-19T15:12:03;21.30;99.90
13598;DHT22;38563;54.258;12.574;2022-08-19T15:14:30;21.30;99.90
13598;DHT22;38563;54.258;12.574;2022-08-19T15:17:00;21.30;99.90
13598;DHT22;38563;54.258;12.574;2022-08-19T15:19:29;21.40;99.90
13598;DHT22;38563;54.258;12.574;2022-08-19T15:21:55;21.40;99.90
13598;DHT22;38563;54.258;12.574;2022-08-19T15:24:22;21.40;99.90